createdAt,value
2023-02-24T00:01:28.556Z,96.13
2023-02-24T00:06:44.008Z,96.56
2023-02-24T00:09:35.205Z,95.90
2023-02-24T00:12:26.722Z,95.79
2023-02-24T00:14:59.288Z,96.16
2023-02-24T00:17:33.220Z,95.43
2023-02-24T00:20:02.060Z,95.41
2023-02-24T00:22:34.732Z,95.17
2023-02-24T00:25:04.020Z,95.49
2023-02-24T00:27:51.937Z,94.82
2023-02-24T00:30:33.825Z,94.74
2023-02-24T00:33:05.910Z,94.51
2023-02-24T00:35:37.197Z,94.12
2023-02-24T00:38:03.804Z,94.22
2023-02-24T00:40:39.311Z,94.73
2023-02-24T00:43:23.042Z,94.41
2023-02-24T00:45:53.656Z,94.90
2023-02-24T00:48:29.712Z,94.80
2023-02-24T00:51:00.964Z,94.63
2023-02-24T00:53:32.313Z,94.71
2023-02-24T00:56:18.417Z,95.19
2023-02-24T00:58:51.099Z,95.12
2023-02-24T01:01:27.641Z,95.03
2023-02-24T01:03:57.145Z,95.34
2023-02-24T01:06:29.349Z,95.32
2023-02-24T01:09:09.793Z,95.53
2023-02-24T01:12:03.168Z,95.82
2023-02-24T01:14:37.444Z,95.56
2023-02-24T01:17:19.510Z,95.70
2023-02-24T01:19:57.453Z,95.30
2023-02-24T01:22:29.631Z,95.22
2023-02-24T01:25:30.673Z,95.48
2023-02-24T01:28:00.002Z,95.71
2023-02-24T01:30:30.445Z,95.48
2023-02-24T01:32:59.420Z,95.33
2023-02-24T01:35:30.782Z,95.63
2023-02-24T01:38:06.443Z,95.76
2023-02-24T01:40:48.675Z,95.93
2023-02-24T01:46:05.459Z,96.10
2023-02-24T01:48:34.444Z,96.44
2023-02-24T01:51:03.338Z,95.87
2023-02-24T01:53:30.224Z,95.95
2023-02-24T01:56:02.162Z,96.02
2023-02-24T01:58:30.388Z,95.06
2023-02-24T02:01:09.288Z,94.20
2023-02-24T02:03:44.733Z,94.49
2023-02-24T02:06:19.769Z,94.26
2023-02-24T02:08:53.574Z,94.32
2023-02-24T02:11:35.142Z,94.63
2023-02-24T02:14:23.150Z,94.39
2023-02-24T02:17:17.974Z,94.97
2023-02-24T02:19:47.354Z,94.74
2023-02-24T02:22:49.312Z,94.43
2023-02-24T02:25:29.264Z,93.95
2023-02-24T02:28:11.036Z,94.03
2023-02-24T02:30:56.330Z,94.28
2023-02-24T02:33:49.971Z,93.91
2023-02-24T02:36:19.513Z,93.28
2023-02-24T02:39:00.944Z,93.58
2023-02-24T02:42:22.343Z,92.65
2023-02-24T02:45:10.960Z,92.70
2023-02-24T02:48:15.207Z,92.72
2023-02-24T02:53:59.985Z,92.67
2023-02-24T03:00:21.819Z,92.39
2023-02-24T03:03:02.537Z,92.95
2023-02-24T03:05:55.593Z,92.90
2023-02-24T03:08:28.499Z,93.62
2023-02-24T03:11:02.419Z,93.51
2023-02-24T03:13:44.630Z,93.96
2023-02-24T03:16:13.763Z,94.44
2023-02-24T03:19:03.967Z,94.86
2023-02-24T03:21:33.590Z,94.89
2023-02-24T03:24:10.969Z,95.65
2023-02-24T03:26:50.147Z,95.74
2023-02-24T03:29:48.985Z,95.42
2023-02-24T03:36:07.045Z,95.93
2023-02-24T03:38:53.980Z,96.20
2023-02-24T03:41:31.543Z,95.31
2023-02-24T03:44:07.308Z,95.75
2023-02-24T03:46:42.646Z,95.86
2023-02-24T03:49:17.049Z,96.06
2023-02-24T03:52:03.486Z,95.96
2023-02-24T03:55:17.526Z,95.09
2023-02-24T03:58:06.218Z,94.75
2023-02-24T04:01:14.078Z,95.26
2023-02-24T04:04:07.033Z,94.40
2023-02-24T04:06:47.375Z,94.91
2023-02-24T04:09:37.506Z,94.50
2023-02-24T04:12:18.603Z,94.69
2023-02-24T04:15:25.372Z,94.97
2023-02-24T04:18:16.462Z,94.68
2023-02-24T04:21:20.439Z,94.66
2023-02-24T04:23:47.961Z,94.54
2023-02-24T04:26:20.269Z,94.50
2023-02-24T04:28:59.649Z,94.53
2023-02-24T04:34:47.731Z,95.09
2023-02-24T04:37:30.862Z,94.87
2023-02-24T04:40:30.335Z,95.40
2023-02-24T04:43:05.448Z,94.58
2023-02-24T04:45:40.550Z,94.93
2023-02-24T04:48:19.883Z,94.51
2023-02-24T04:51:11.834Z,94.84
2023-02-24T04:53:49.115Z,94.63
2023-02-24T04:56:31.817Z,94.64
2023-02-24T04:59:21.729Z,95.64
2023-02-24T05:04:53.508Z,95.23
2023-02-24T05:07:22.807Z,94.75
2023-02-24T05:09:58.246Z,94.88
2023-02-24T05:12:31.949Z,94.88
2023-02-24T05:15:18.923Z,94.98
2023-02-24T05:17:56.288Z,95.27
2023-02-24T05:26:32.211Z,94.46
2023-02-24T05:31:42.651Z,95.53
2023-02-24T05:34:26.883Z,95.87
2023-02-24T05:37:21.424Z,96.36
2023-02-24T05:43:15.394Z,96.03
2023-02-24T05:45:48.282Z,95.96
2023-02-24T05:48:18.764Z,96.82
2023-02-24T05:50:58.018Z,96.22
2023-02-24T05:53:25.400Z,97.12
2023-02-24T05:56:13.980Z,96.51
2023-02-24T05:58:59.192Z,96.14
2023-02-24T06:01:43.924Z,95.92
2023-02-24T06:04:36.430Z,95.73
2023-02-24T06:07:28.162Z,96.44
2023-02-24T06:10:11.586Z,96.30
2023-02-24T06:13:01.342Z,95.67
2023-02-24T06:15:39.148Z,95.59
2023-02-24T06:18:07.038Z,96.07
2023-02-24T06:20:56.334Z,97.05
2023-02-24T06:23:31.196Z,96.59
2023-02-24T06:26:19.558Z,96.73
2023-02-24T06:28:48.076Z,96.23
2023-02-24T06:31:18.306Z,95.36
2023-02-24T06:34:04.640Z,95.52
2023-02-24T06:36:53.784Z,95.79
2023-02-24T06:39:22.588Z,95.87
2023-02-24T06:44:58.688Z,95.64
2023-02-24T06:48:08.505Z,95.00
2023-02-24T06:50:41.987Z,94.93
2023-02-24T06:53:33.526Z,93.32
2023-02-24T06:56:07.099Z,92.84
2023-02-24T06:58:37.817Z,93.08
2023-02-24T07:01:12.718Z,92.96
2023-02-24T07:03:47.486Z,93.20
2023-02-24T07:06:28.212Z,93.08
2023-02-24T07:09:02.317Z,92.62
2023-02-24T07:11:46.949Z,92.46
2023-02-24T07:14:42.788Z,92.76
2023-02-24T07:17:22.400Z,92.38
2023-02-24T07:20:02.131Z,92.48
2023-02-24T07:22:38.224Z,92.09
2023-02-24T07:25:33.342Z,91.95
2023-02-24T07:28:17.104Z,92.74
2023-02-24T07:30:51.461Z,92.02
2023-02-24T07:33:27.514Z,91.01
2023-02-24T07:36:08.941Z,91.16
2023-02-24T07:38:39.736Z,90.45
2023-02-24T07:41:12.361Z,90.73
2023-02-24T07:43:40.632Z,91.42
2023-02-24T07:46:15.986Z,90.71
2023-02-24T07:48:42.760Z,89.89
2023-02-24T07:51:14.739Z,90.52
2023-02-24T07:53:44.102Z,90.53
2023-02-24T07:56:18.755Z,89.42
2023-02-24T07:58:51.813Z,88.96
2023-02-24T08:01:24.895Z,89.40
2023-02-24T08:04:07.977Z,89.17
2023-02-24T08:06:45.467Z,88.79
2023-02-24T08:09:20.174Z,88.05
2023-02-24T08:11:55.154Z,88.07
2023-02-24T08:14:34.872Z,88.07
2023-02-24T08:17:05.349Z,87.84
2023-02-24T08:19:33.475Z,87.82
2023-02-24T08:22:19.301Z,87.52
2023-02-24T08:24:50.094Z,87.72
2023-02-24T08:27:21.833Z,87.75
2023-02-24T08:29:59.962Z,88.26
2023-02-24T08:32:45.006Z,88.15
2023-02-24T08:35:17.029Z,87.44
2023-02-24T08:37:48.271Z,87.65
2023-02-24T08:40:49.661Z,87.28
2023-02-24T08:43:24.949Z,86.98
2023-02-24T08:45:59.345Z,85.95
2023-02-24T08:48:38.183Z,86.25
2023-02-24T08:51:09.838Z,86.41
2023-02-24T08:53:40.435Z,86.01
2023-02-24T08:56:11.497Z,84.89
2023-02-24T08:58:49.383Z,84.66
2023-02-24T09:01:24.132Z,85.07
2023-02-24T09:03:54.430Z,84.06
2023-02-24T09:06:25.837Z,83.00
2023-02-24T09:09:15.353Z,83.74
2023-02-24T09:11:44.689Z,83.04
2023-02-24T09:14:25.988Z,82.08
2023-02-24T09:17:02.466Z,82.12
2023-02-24T09:19:51.920Z,81.26
2023-02-24T09:22:41.828Z,81.95
2023-02-24T09:25:40.590Z,80.77
2023-02-24T09:28:24.957Z,80.66
2023-02-24T09:31:00.306Z,80.85
2023-02-24T09:33:41.152Z,81.63
2023-02-24T09:36:13.141Z,80.20
2023-02-24T09:39:01.238Z,80.09
2023-02-24T09:41:54.836Z,80.54
2023-02-24T09:44:36.546Z,81.18
2023-02-24T09:47:13.429Z,80.10
2023-02-24T09:49:59.044Z,79.97
2023-02-24T09:52:43.629Z,79.36
2023-02-24T09:55:25.082Z,81.67
2023-02-24T09:58:18.956Z,78.30
2023-02-24T10:01:20.949Z,79.36
2023-02-24T10:04:14.884Z,78.34
2023-02-24T10:06:50.233Z,79.34
2023-02-24T10:09:35.860Z,78.54
2023-02-24T10:12:11.736Z,79.45
2023-02-24T10:15:19.101Z,77.45
2023-02-24T10:17:58.137Z,76.71
2023-02-24T10:20:31.222Z,76.13
2023-02-24T10:23:09.719Z,77.53
2023-02-24T10:25:53.775Z,75.91
2023-02-24T10:28:51.062Z,73.60
2023-02-24T10:31:46.056Z,73.78
2023-02-24T10:34:20.857Z,74.54
2023-02-24T10:36:50.342Z,75.33
2023-02-24T10:39:21.098Z,74.77
2023-02-24T10:42:15.645Z,76.03
2023-02-24T10:45:02.237Z,74.59
2023-02-24T10:47:33.165Z,73.60
2023-02-24T10:50:12.582Z,74.97
2023-02-24T10:52:56.497Z,73.67
2023-02-24T10:55:45.920Z,73.26
2023-02-24T10:58:27.837Z,70.19
2023-02-24T11:01:20.937Z,71.69
2023-02-24T11:04:23.929Z,71.72
2023-02-24T11:06:53.912Z,71.47
2023-02-24T11:09:27.793Z,69.71
2023-02-24T11:12:31.539Z,72.04
2023-02-24T11:15:23.225Z,70.26
2023-02-24T11:17:56.987Z,70.54
2023-02-24T11:20:48.359Z,69.50
2023-02-24T11:23:29.284Z,69.27
2023-02-24T11:26:00.965Z,69.15
2023-02-24T11:28:59.545Z,70.22
2023-02-24T11:31:44.428Z,70.39
2023-02-24T11:34:18.775Z,70.00
2023-02-24T11:37:14.470Z,68.21
2023-02-24T11:40:01.535Z,69.18
2023-02-24T11:42:52.403Z,69.90
2023-02-24T11:45:40.156Z,68.71
2023-02-24T11:48:16.030Z,68.90
2023-02-24T11:51:20.102Z,69.38
2023-02-24T11:54:01.951Z,67.44
2023-02-24T11:56:35.055Z,67.00
2023-02-24T11:59:14.038Z,67.72
2023-02-24T12:01:59.192Z,66.44
2023-02-24T12:04:46.574Z,67.42
2023-02-24T12:07:12.972Z,66.30
2023-02-24T12:09:54.909Z,67.73
2023-02-24T12:12:32.276Z,66.92
2023-02-24T12:15:03.588Z,66.42
2023-02-24T12:17:36.688Z,66.23
2023-02-24T12:20:14.217Z,70.09
2023-02-24T12:22:51.491Z,67.63
2023-02-24T12:25:23.988Z,68.64
2023-02-24T12:28:11.649Z,68.22
2023-02-24T12:30:49.915Z,69.06
2023-02-24T12:33:43.691Z,70.16
2023-02-24T12:36:15.699Z,69.55
2023-02-24T12:38:51.134Z,69.65
2023-02-24T12:41:29.842Z,69.55
2023-02-24T12:44:17.781Z,67.89
2023-02-24T12:46:52.503Z,68.02
2023-02-24T12:49:21.803Z,69.83
2023-02-24T12:52:13.174Z,67.46
2023-02-24T12:54:53.581Z,66.74
2023-02-24T12:57:31.011Z,65.87
2023-02-24T13:00:06.485Z,68.12
2023-02-24T13:02:56.964Z,66.35
2023-02-24T13:05:43.164Z,66.08
2023-02-24T13:08:45.731Z,67.20
2023-02-24T13:11:27.514Z,66.62
2023-02-24T13:14:16.541Z,65.61
2023-02-24T13:16:43.157Z,64.66
2023-02-24T13:19:29.837Z,66.78
2023-02-24T13:22:06.317Z,65.62
2023-02-24T13:24:33.668Z,64.65
2023-02-24T13:27:13.243Z,67.93
2023-02-24T13:30:20.005Z,69.87
2023-02-24T13:33:06.602Z,70.54
2023-02-24T13:35:37.056Z,69.46
2023-02-24T13:38:32.806Z,70.93
2023-02-24T13:41:30.048Z,70.04
2023-02-24T13:44:19.963Z,70.06
2023-02-24T13:47:28.943Z,68.68
2023-02-24T13:50:10.779Z,68.73
2023-02-24T13:52:43.086Z,68.74
2023-02-24T13:55:30.655Z,67.80
2023-02-24T13:58:08.750Z,67.44
2023-02-24T14:00:53.956Z,67.07
2023-02-24T14:03:26.814Z,66.24
2023-02-24T14:05:53.592Z,67.25
2023-02-24T14:08:41.134Z,67.88
2023-02-24T14:11:21.331Z,67.48
2023-02-24T14:13:56.658Z,66.99
2023-02-24T14:16:35.889Z,65.55
2023-02-24T14:19:03.631Z,65.56
2023-02-24T14:21:34.871Z,65.16
2023-02-24T14:24:05.261Z,62.98
2023-02-24T14:26:41.868Z,63.09
2023-02-24T14:29:08.907Z,61.81
2023-02-24T14:31:38.633Z,61.21
2023-02-24T14:34:16.264Z,60.73
2023-02-24T14:36:45.248Z,62.68
2023-02-24T14:39:22.138Z,61.79
2023-02-24T14:41:50.629Z,62.85
2023-02-24T14:44:26.505Z,60.41
2023-02-24T14:47:02.789Z,61.74
2023-02-24T14:49:33.498Z,63.56
2023-02-24T14:52:02.580Z,66.39
2023-02-24T14:54:48.434Z,63.73
2023-02-24T14:57:22.201Z,65.46
2023-02-24T14:59:52.879Z,67.50
2023-02-24T15:02:25.539Z,67.62
2023-02-24T15:04:54.507Z,67.79
2023-02-24T15:07:29.776Z,70.16
2023-02-24T15:09:57.399Z,71.06
2023-02-24T15:12:35.904Z,71.30
2023-02-24T15:15:09.158Z,72.17
2023-02-24T15:17:41.020Z,72.54
2023-02-24T15:20:26.135Z,72.78
2023-02-24T15:22:52.653Z,72.86
2023-02-24T15:25:28.122Z,72.51
2023-02-24T15:28:03.564Z,64.94
2023-02-24T15:30:39.817Z,65.97
2023-02-24T15:33:29.101Z,64.13
2023-02-24T15:35:58.994Z,60.94
2023-02-24T15:38:35.136Z,60.61
2023-02-24T15:41:04.289Z,61.04
2023-02-24T15:43:32.031Z,57.58
2023-02-24T15:45:58.527Z,58.37
2023-02-24T15:48:31.564Z,58.00
2023-02-24T15:51:05.436Z,58.86
2023-02-24T15:53:34.187Z,58.68
2023-02-24T15:56:00.786Z,57.37
2023-02-24T15:58:30.588Z,58.96
2023-02-24T16:00:57.142Z,58.67
2023-02-24T16:03:23.586Z,58.78
2023-02-24T16:05:49.988Z,57.72
2023-02-24T16:08:19.202Z,57.73
2023-02-24T16:10:46.495Z,59.21
2023-02-24T16:13:20.311Z,60.02
2023-02-24T16:15:46.779Z,59.17
2023-02-24T16:18:21.931Z,57.40
2023-02-24T16:20:54.866Z,59.16
2023-02-24T16:23:22.478Z,58.79
2023-02-24T16:25:51.470Z,59.00
2023-02-24T16:28:20.279Z,59.61
2023-02-24T16:30:49.910Z,58.66
2023-02-24T16:33:18.436Z,58.33
2023-02-24T16:35:45.444Z,59.79
2023-02-24T16:38:16.894Z,59.35
2023-02-24T16:40:45.333Z,59.32
2023-02-24T16:43:13.418Z,59.37
2023-02-24T16:45:43.478Z,59.74
2023-02-24T16:48:19.336Z,59.46
2023-02-24T16:50:45.965Z,58.73
2023-02-24T16:53:20.167Z,58.90
2023-02-24T16:55:47.204Z,60.47
2023-02-24T16:58:14.630Z,59.79
2023-02-24T17:00:46.186Z,60.36
2023-02-24T17:03:16.608Z,59.87
2023-02-24T17:05:44.340Z,60.01
2023-02-24T17:08:11.560Z,60.75
2023-02-24T17:10:39.930Z,59.85
2023-02-24T17:13:06.861Z,61.16
2023-02-24T17:15:36.465Z,60.83
2023-02-24T17:18:02.948Z,60.28
2023-02-24T17:20:29.706Z,61.49
2023-02-24T17:22:56.283Z,60.22
2023-02-24T17:25:25.830Z,61.13
2023-02-24T17:27:54.201Z,62.75
2023-02-24T17:30:24.190Z,62.05
2023-02-24T17:32:50.946Z,61.29
2023-02-24T17:35:20.484Z,61.74
2023-02-24T17:37:47.075Z,61.73
2023-02-24T17:40:14.248Z,61.87
2023-02-24T17:42:41.264Z,62.02
2023-02-24T17:45:08.671Z,62.11
2023-02-24T17:47:35.520Z,61.62
2023-02-24T17:50:02.898Z,62.07
2023-02-24T17:52:31.610Z,61.89
2023-02-24T17:54:58.420Z,62.00
2023-02-24T17:57:27.093Z,61.48
2023-02-24T17:59:55.705Z,61.86
2023-02-24T18:02:22.420Z,62.16
2023-02-24T18:04:49.703Z,62.18
2023-02-24T18:07:16.421Z,60.50
2023-02-24T18:09:42.777Z,60.62
2023-02-24T18:12:09.196Z,59.53
2023-02-24T18:14:35.973Z,59.36
2023-02-24T18:17:04.948Z,59.38
2023-02-24T18:19:31.400Z,59.13
2023-02-24T18:21:58.006Z,58.06
2023-02-24T18:24:24.430Z,57.74
2023-02-24T18:26:50.862Z,57.77
2023-02-24T18:29:17.318Z,57.52
2023-02-24T18:31:43.885Z,57.68
2023-02-24T18:34:10.456Z,57.63
2023-02-24T18:36:36.986Z,57.95
2023-02-24T18:39:03.952Z,56.97
2023-02-24T18:41:30.818Z,56.38
2023-02-24T18:43:59.083Z,56.91
2023-02-24T18:46:26.720Z,56.54
2023-02-24T18:48:56.438Z,56.09
2023-02-24T18:51:29.182Z,56.54
2023-02-24T18:53:58.169Z,56.49
2023-02-24T18:56:29.483Z,56.60
2023-02-24T18:58:58.164Z,56.35
2023-02-24T19:01:34.020Z,56.57
2023-02-24T19:04:01.062Z,57.44
2023-02-24T19:06:29.594Z,58.45
2023-02-24T19:09:16.630Z,59.13
2023-02-24T19:11:43.211Z,59.93
2023-02-24T19:14:13.386Z,60.63
2023-02-24T19:16:40.442Z,61.17
2023-02-24T19:19:06.986Z,61.68
2023-02-24T19:21:34.596Z,63.04
2023-02-24T19:24:08.343Z,63.50
2023-02-24T19:26:34.973Z,64.56
2023-02-24T19:29:01.669Z,65.12
2023-02-24T19:31:32.012Z,66.17
2023-02-24T19:34:01.244Z,67.35
2023-02-24T19:36:29.397Z,67.80
2023-02-24T19:38:56.166Z,68.62
2023-02-24T19:41:23.199Z,70.24
2023-02-24T19:43:49.889Z,71.16
2023-02-24T19:46:17.649Z,72.28
2023-02-24T19:49:07.268Z,73.86
2023-02-24T19:51:33.737Z,75.62
2023-02-24T19:54:05.794Z,77.57
2023-02-24T19:56:35.727Z,79.18
2023-02-24T19:59:07.729Z,82.20
2023-02-24T20:01:34.388Z,84.14
2023-02-24T20:04:21.628Z,85.67
2023-02-24T20:06:48.803Z,87.60
2023-02-24T20:09:21.703Z,88.83
2023-02-24T20:11:52.111Z,91.40
2023-02-24T20:14:21.731Z,91.85
2023-02-24T20:16:48.623Z,94.52
2023-02-24T20:19:19.987Z,94.67
2023-02-24T20:21:47.654Z,95.96
2023-02-24T20:24:15.880Z,98.39
2023-02-24T20:26:47.332Z,98.48
2023-02-24T20:29:15.454Z,99.50
2023-02-24T20:31:42.682Z,100.00
2023-02-24T20:34:11.144Z,100.00
2023-02-24T20:36:37.539Z,95.77
2023-02-24T20:39:06.671Z,96.64
2023-02-24T20:41:33.751Z,95.13
2023-02-24T20:44:00.412Z,95.71
2023-02-24T20:46:30.138Z,95.71
2023-02-24T20:49:01.879Z,95.13
2023-02-24T20:51:30.039Z,94.71
2023-02-24T20:53:58.598Z,95.74
2023-02-24T20:56:29.873Z,95.32
2023-02-24T20:59:01.754Z,94.88
2023-02-24T21:01:30.506Z,95.87
2023-02-24T21:03:57.136Z,96.14
2023-02-24T21:06:24.877Z,97.02
2023-02-24T21:08:53.456Z,96.93
2023-02-24T21:11:21.176Z,96.97
2023-02-24T21:13:49.889Z,97.42
2023-02-24T21:16:18.594Z,97.17
2023-02-24T21:18:47.805Z,96.86
2023-02-24T21:21:15.355Z,96.87
2023-02-24T21:23:43.415Z,98.05
2023-02-24T21:26:11.420Z,98.21
2023-02-24T21:28:40.512Z,98.53
2023-02-24T21:31:15.300Z,97.73
2023-02-24T21:33:42.578Z,98.05
2023-02-24T21:36:13.546Z,99.70
2023-02-24T21:38:41.789Z,98.02
2023-02-24T21:41:14.834Z,98.23
2023-02-24T21:43:44.335Z,97.78
2023-02-24T21:46:13.242Z,96.75
2023-02-24T21:48:41.959Z,97.77
2023-02-24T21:51:13.651Z,97.91
2023-02-24T21:53:43.431Z,99.33
2023-02-24T21:56:18.920Z,99.02
2023-02-24T21:58:54.416Z,99.16
2023-02-24T22:01:25.474Z,98.91
2023-02-24T22:04:02.826Z,99.53
2023-02-24T22:06:32.037Z,100.00
2023-02-24T22:09:03.700Z,99.96
2023-02-24T22:11:37.367Z,100.00
2023-02-24T22:14:07.052Z,100.00
2023-02-24T22:16:33.639Z,100.00
2023-02-24T22:19:00.263Z,100.00
2023-02-24T22:21:28.775Z,100.00
2023-02-24T22:23:57.870Z,100.00
2023-02-24T22:26:28.621Z,100.00
2023-02-24T22:29:01.322Z,100.00
2023-02-24T22:31:30.828Z,100.00
2023-02-24T22:33:58.653Z,99.35
2023-02-24T22:36:30.886Z,99.56
2023-02-24T22:38:59.470Z,99.84
2023-02-24T22:41:31.329Z,99.25
2023-02-24T22:44:01.718Z,98.55
2023-02-24T22:46:34.068Z,99.12
2023-02-24T22:49:05.750Z,98.49
2023-02-24T22:51:34.856Z,98.30
2023-02-24T22:54:01.412Z,96.65
2023-02-24T22:56:31.328Z,95.42
2023-02-24T22:58:58.988Z,96.41
2023-02-24T23:01:31.333Z,96.54
2023-02-24T23:04:05.818Z,94.30
2023-02-24T23:06:33.054Z,94.55
2023-02-24T23:09:07.265Z,95.72
2023-02-24T23:11:39.530Z,92.37
2023-02-24T23:14:23.531Z,92.03
2023-02-24T23:16:55.589Z,91.17
2023-02-24T23:19:22.892Z,89.55
2023-02-24T23:21:53.904Z,88.48
2023-02-24T23:24:23.997Z,85.82
2023-02-24T23:26:53.929Z,85.78
2023-02-24T23:29:30.888Z,86.08
2023-02-24T23:31:58.124Z,86.70
2023-02-24T23:34:27.028Z,84.27
2023-02-24T23:36:55.159Z,85.75
2023-02-24T23:39:24.099Z,85.38
2023-02-24T23:41:57.066Z,83.63
2023-02-24T23:44:30.031Z,84.53
2023-02-24T23:46:58.205Z,84.21
2023-02-24T23:49:24.824Z,83.16
2023-02-24T23:51:51.510Z,85.08
2023-02-24T23:54:23.288Z,81.80
2023-02-24T23:56:50.043Z,81.53
2023-02-24T23:59:16.990Z,80.63
